Dyersburg, TN

12:56 AM CDT on August 27, 2016 (GMT -0500)
Dyersburg Municipal

Weather History for KDYR - February, 2012

Change the Weather History Date:

Tuesday, February 21, 2012

  Actual Average Record
Temperature  
Mean Temperature 50 °F -  
Max Temperature 57 °F 50 °F 68 °F (1997)
Min Temperature 44 °F 35 °F 24 °F (2006)
Degree Days  
Heating Degree Days 14    
Moisture  
Dew Point 35 °F    
Average Humidity 56    
Maximum Humidity 76    
Minimum Humidity 41    
Precipitation  
Precipitation 0.05 in - - ()
Sea Level Pressure  
Sea Level Pressure 29.99 in    
Wind  
Wind Speed 14 mph (SW)    
Max Wind Speed 22 mph    
Max Gust Speed 37 mph    
Visibility 10 miles    
Events      
Averages and records for this station are not official NWS values.
T = Trace of Precipitation, MM = Missing Value Source: NWS Daily Summary

Daily Weather History Graph

Daily Weather History Graph

Search for Another Location

Airport or City:

Trip Planner

Search our weather history database for the weather conditions in past years. The results will help you decide how hot, cold, wet, or windy it might be!

Date:

Astronomy

Feb. 21, 2012 Rise Set
Actual Time 6:38 AM CST 5:44 PM CST
Civil Twilight 6:12 AM CST 6:10 PM CST
Nautical Twilight 5:42 AM CST 6:40 PM CST
Astronomical Twilight 5:13 AM CST 7:10 PM CST
Moon 6:08 AM CST (2/21) 5:49 PM CST (2/21)
Length of Visible Light 11h 58m
Length of Day
11h 06m
Waning Crescent, 0% of the Moon is Illuminated
Feb 21
Waning Crescent
Feb 21
New
Feb 29
First Quarter
Mar 8
Full
Mar 14
Last Quarter

Hourly Weather History & Observations

Time (CST) Temp. Windchill Dew Point Humidity Pressure Visibility Wind Dir Wind Speed Gust Speed Precip Events Conditions
12:15 AM 51.8 °F - 30.2 °F 44% 29.94 in 10.0 mi SSE 10.4 mph 19.6 mph N/A   Mostly Cloudy
12:35 AM 51.8 °F - 30.2 °F 44% 29.93 in 10.0 mi South 13.8 mph - N/A   Overcast
12:55 AM 51.8 °F - 32.0 °F 47% 29.95 in 10.0 mi SSW 12.7 mph 21.9 mph 0.01 in   Overcast
1:15 AM 48.2 °F - 35.6 °F 62% 29.99 in 10.0 mi SSW 12.7 mph 18.4 mph 0.03 in   Overcast
1:35 AM 46.4 °F 40.7 °F 37.4 °F 71% 29.94 in 10.0 mi South 12.7 mph 23.0 mph 0.04 in   Overcast
1:55 AM 46.4 °F 40.1 °F 37.4 °F 71% 29.89 in 10.0 mi South 15.0 mph 24.2 mph 0.04 in   Overcast
2:15 AM 46.4 °F 40.4 °F 37.4 °F 71% 29.90 in 10.0 mi South 13.8 mph 21.9 mph N/A   Scattered Clouds
2:35 AM 46.4 °F 41.1 °F 39.2 °F 76% 29.90 in 10.0 mi South 11.5 mph 17.3 mph N/A   Clear
2:55 AM 46.4 °F 40.4 °F 39.2 °F 76% 29.90 in 10.0 mi South 13.8 mph 18.4 mph N/A   Scattered Clouds
3:35 AM 46.4 °F 40.7 °F 39.2 °F 76% 29.91 in 10.0 mi SSW 12.7 mph 18.4 mph N/A   Partly Cloudy
3:55 AM 46.4 °F 41.1 °F 39.2 °F 76% 29.92 in 10.0 mi SW 11.5 mph 17.3 mph N/A   Clear
4:15 AM 48.2 °F - 39.2 °F 71% 29.92 in 10.0 mi SW 18.4 mph 27.6 mph N/A   Clear
4:35 AM 48.2 °F - 39.2 °F 71% 29.93 in 10.0 mi SW 13.8 mph 23.0 mph N/A   Clear
4:55 AM 48.2 °F - 37.4 °F 66% 29.95 in 10.0 mi SW 19.6 mph 31.1 mph N/A   Partly Cloudy
5:15 AM 48.2 °F - 37.4 °F 66% 29.96 in 10.0 mi WSW 21.9 mph 36.8 mph N/A   Scattered Clouds
5:35 AM 46.4 °F 38.7 °F 37.4 °F 71% 29.97 in 10.0 mi WSW 20.7 mph 28.8 mph N/A   Partly Cloudy
5:55 AM 46.4 °F 39.0 °F 37.4 °F 71% 29.98 in 10.0 mi SW 19.6 mph 23.0 mph N/A   Clear
6:15 AM 46.4 °F 39.8 °F 35.6 °F 66% 29.98 in 10.0 mi WSW 16.1 mph 23.0 mph N/A   Clear
6:35 AM 44.6 °F 37.2 °F 35.6 °F 71% 29.99 in 10.0 mi WSW 17.3 mph - N/A   Clear
6:55 AM 44.6 °F 37.4 °F 33.8 °F 66% 29.99 in 10.0 mi WSW 16.1 mph 24.2 mph N/A   Clear
7:15 AM 44.6 °F 37.8 °F 33.8 °F 66% 30.00 in 10.0 mi WSW 15.0 mph 21.9 mph N/A   Clear
7:35 AM 46.4 °F 40.4 °F 33.8 °F 62% 30.02 in 10.0 mi WSW 13.8 mph 21.9 mph N/A   Clear
7:55 AM 46.4 °F 39.8 °F 33.8 °F 62% 30.02 in 10.0 mi SW 16.1 mph 20.7 mph N/A   Clear
8:15 AM 48.2 °F - 35.6 °F 62% 30.03 in 10.0 mi WSW 16.1 mph 19.6 mph N/A   Clear
8:35 AM 48.2 °F - 33.8 °F 58% 30.03 in 10.0 mi SW 15.0 mph 20.7 mph N/A   Clear
8:55 AM 48.2 °F - 33.8 °F 58% 30.04 in 10.0 mi SW 17.3 mph - N/A   Clear
9:15 AM 50.0 °F - 35.6 °F 58% 30.04 in 10.0 mi WSW 15.0 mph 26.5 mph N/A   Clear
9:35 AM 50.0 °F - 33.8 °F 54% 30.05 in 10.0 mi WSW 20.7 mph 26.5 mph N/A   Clear
9:55 AM 51.8 °F - 35.6 °F 54% 30.06 in 10.0 mi WSW 21.9 mph 26.5 mph N/A   Partly Cloudy
10:15 AM 51.8 °F - 33.8 °F 50% 30.06 in 10.0 mi WSW 20.7 mph 26.5 mph N/A   Scattered Clouds
10:35 AM 51.8 °F - 35.6 °F 54% 30.06 in 10.0 mi WSW 18.4 mph 26.5 mph N/A   Partly Cloudy
10:55 AM 51.8 °F - 35.6 °F 54% 30.06 in 10.0 mi WSW 16.1 mph 25.3 mph N/A   Partly Cloudy
11:15 AM 53.6 °F - 35.6 °F 51% 30.06 in 10.0 mi WSW 20.7 mph 25.3 mph N/A   Clear
11:35 AM 53.6 °F - 35.6 °F 51% 30.05 in 10.0 mi WSW 20.7 mph 26.5 mph N/A   Clear
11:55 AM 55.4 °F - 37.4 °F 51% 30.04 in 10.0 mi WSW 13.8 mph 21.9 mph N/A   Clear
12:15 PM 55.4 °F - 35.6 °F 47% 30.04 in 10.0 mi West 18.4 mph 26.5 mph N/A   Clear
12:35 PM 55.4 °F - 37.4 °F 51% 30.03 in 10.0 mi WSW 19.6 mph - N/A   Clear
12:55 PM 55.4 °F - 37.4 °F 51% 30.02 in 10.0 mi WSW 17.3 mph 27.6 mph N/A   Clear
1:15 PM 57.2 °F - 37.4 °F 48% 30.02 in 10.0 mi SW 16.1 mph 20.7 mph N/A   Clear
1:35 PM 57.2 °F - 37.4 °F 48% 30.00 in 10.0 mi WSW 16.1 mph 25.3 mph N/A   Clear
1:55 PM 57.2 °F - 37.4 °F 48% 30.00 in 10.0 mi WSW 16.1 mph 24.2 mph N/A   Clear
2:15 PM 57.2 °F - 37.4 °F 48% 29.99 in 10.0 mi WSW 17.3 mph 24.2 mph N/A   Clear
2:35 PM 57.2 °F - 35.6 °F 44% 29.99 in 10.0 mi West 12.7 mph 23.0 mph N/A   Clear
2:55 PM 57.2 °F - 37.4 °F 48% 29.98 in 10.0 mi WSW 17.3 mph - N/A   Clear
3:15 PM 57.2 °F - 37.4 °F 48% 29.97 in 10.0 mi WSW 13.8 mph 20.7 mph N/A   Clear
3:35 PM 57.2 °F - 37.4 °F 48% 29.97 in 10.0 mi SW 12.7 mph 21.9 mph N/A   Clear
3:55 PM 57.2 °F - 33.8 °F 41% 29.98 in 10.0 mi West 16.1 mph 23.0 mph N/A   Clear
4:15 PM 57.2 °F - 33.8 °F 41% 29.99 in 10.0 mi WSW 15.0 mph 20.7 mph N/A   Clear
4:35 PM 57.2 °F - 33.8 °F 41% 29.98 in 10.0 mi West 16.1 mph 20.7 mph N/A   Clear
4:55 PM 57.2 °F - 33.8 °F 41% 29.99 in 10.0 mi WSW 13.8 mph 18.4 mph N/A   Clear
5:15 PM 55.4 °F - 33.8 °F 44% 29.98 in 10.0 mi SW 9.2 mph - N/A   Clear
5:35 PM 53.6 °F - 33.8 °F 47% 29.99 in 10.0 mi SW 9.2 mph - N/A   Clear
5:55 PM 51.8 °F - 32.0 °F 47% 29.99 in 10.0 mi WSW 6.9 mph - N/A   Clear
6:15 PM 51.8 °F - 30.2 °F 44% 29.98 in 10.0 mi SSW 5.8 mph - N/A   Clear
7:15 PM 48.2 °F - 30.2 °F 50% 29.97 in 10.0 mi South 3.5 mph - N/A   Clear
7:35 PM 48.2 °F - 30.2 °F 50% 29.98 in 10.0 mi SSW 3.5 mph - N/A   Clear
7:55 PM 50.0 °F - 30.2 °F 47% 29.98 in 10.0 mi South 4.6 mph - N/A   Clear
8:15 PM 50.0 °F - 30.2 °F 47% 29.97 in 10.0 mi South 5.8 mph - N/A   Clear
8:35 PM 50.0 °F - 30.2 °F 47% 29.96 in 10.0 mi South 5.8 mph - N/A   Clear
8:55 PM 50.0 °F - 30.2 °F 47% 29.96 in 10.0 mi South 5.8 mph - N/A   Clear
9:15 PM 46.4 °F 45.2 °F 30.2 °F 53% 29.96 in 10.0 mi South 3.5 mph - N/A   Clear
9:35 PM 46.4 °F 44.3 °F 30.2 °F 53% 29.96 in 10.0 mi South 4.6 mph - N/A   Clear
9:55 PM 46.4 °F 45.2 °F 30.2 °F 53% 29.96 in 10.0 mi South 3.5 mph - N/A   Clear
10:15 PM 46.4 °F 45.2 °F 30.2 °F 53% 29.95 in 10.0 mi SSE 3.5 mph - N/A   Clear
10:35 PM 46.4 °F 44.3 °F 30.2 °F 53% 29.95 in 10.0 mi South 4.6 mph - N/A   Clear
10:55 PM 46.4 °F 44.3 °F 30.2 °F 53% 29.94 in 10.0 mi South 4.6 mph - N/A   Clear
11:15 PM 48.2 °F - 30.2 °F 50% 29.93 in 10.0 mi South 4.6 mph - N/A   Clear
11:35 PM 46.4 °F 43.5 °F 30.2 °F 53% 29.92 in 10.0 mi South 5.8 mph - N/A   Clear
11:55 PM 46.4 °F 43.5 °F 28.4 °F 50% 29.92 in 10.0 mi South 5.8 mph - N/A   Clear